Map

Track Data

SID SEASON NUMBER BASIN SUBBASIN NAME ISO_TIME NATURE LAT LON WMO_WIND WMO_PRES WMO_AGENCY TRACK_TYPE DIST2LAND LANDFALL IFLAG USA_AGENCY USA_ATCF_ID USA_LAT USA_LON USA_RECORD USA_STATUS USA_WIND USA_PRES USA_SSHS USA_R34_NE USA_R34_SE USA_R34_SW USA_R34_NW USA_R50_NE USA_R50_SE USA_R50_SW USA_R50_NW USA_R64_NE USA_R64_SE USA_R64_SW USA_R64_NW USA_POCI USA_ROCI USA_RMW USA_EYE TOKYO_LAT TOKYO_LON TOKYO_GRADE TOKYO_WIND TOKYO_PRES TOKYO_R50_DIR TOKYO_R50_LONG TOKYO_R50_SHORT TOKYO_R30_DIR TOKYO_R30_LONG TOKYO_R30_SHORT TOKYO_LAND CMA_LAT CMA_LON CMA_CAT CMA_WIND CMA_PRES HKO_LAT HKO_LON HKO_CAT HKO_WIND HKO_PRES NEWDELHI_LAT NEWDELHI_LON NEWDELHI_GRADE NEWDELHI_WIND NEWDELHI_PRES NEWDELHI_CI NEWDELHI_DP NEWDELHI_POCI REUNION_LAT REUNION_LON REUNION_TYPE REUNION_WIND REUNION_PRES REUNION_TNUM REUNION_CI REUNION_RMW REUNION_R34_NE REUNION_R34_SE REUNION_R34_SW REUNION_R34_NW REUNION_R50_NE REUNION_R50_SE REUNION_R50_SW REUNION_R50_NW REUNION_R64_NE REUNION_R64_SE REUNION_R64_SW REUNION_R64_NW BOM_LAT BOM_LON BOM_TYPE BOM_WIND BOM_PRES BOM_TNUM BOM_CI BOM_RMW BOM_R34_NE BOM_R34_SE BOM_R34_SW BOM_R34_NW BOM_R50_NE BOM_R50_SE BOM_R50_SW BOM_R50_NW BOM_R64_NE BOM_R64_SE BOM_R64_SW BOM_R64_NW BOM_ROCI BOM_POCI BOM_EYE BOM_POS_METHOD BOM_PRES_METHOD NADI_LAT NADI_LON NADI_CAT NADI_WIND NADI_PRES WELLINGTON_LAT WELLINGTON_LON WELLINGTON_WIND WELLINGTON_PRES DS824_LAT DS824_LON DS824_STAGE DS824_WIND DS824_PRES TD9636_LAT TD9636_LON TD9636_STAGE TD9636_WIND TD9636_PRES TD9635_LAT TD9635_LON TD9635_WIND TD9635_PRES TD9635_ROCI NEUMANN_LAT NEUMANN_LON NEUMANN_CLASS NEUMANN_WIND NEUMANN_PRES MLC_LAT MLC_LON MLC_CLASS MLC_WIND MLC_PRES USA_GUST BOM_GUST BOM_GUST_PER REUNION_GUST REUNION_GUST_PER USA_SEAHGT USA_SEARAD_NE USA_SEARAD_SE USA_SEARAD_SW USA_SEARAD_NW STORM_SPEED STORM_DIR
1909297N16094 1909 61 NI BB NOT_NAMED 1909-10-24 00:00:00 TS 15.6000 93.9000 main 55 46 _________O____ -1 15.6000 93.9000 TC 64 5 318
1909297N16094 1909 61 NI BB NOT_NAMED 1909-10-24 03:00:00 TS 15.7717 93.7417 main 57 54 _________PO___ -1 15.8575 93.6626 TC 64 15.6000 93.9000 4 6 315
1909297N16094 1909 61 NI BB NOT_NAMED 1909-10-24 06:00:00 TS 15.9983 93.4847 main 74 74 _________OP___ -1 16.1000 93.4000 TC 64 15.8458 93.6117 4 7 310
1909297N16094 1909 61 NI BB NOT_NAMED 1909-10-24 09:00:00 TS 16.2156 93.1979 main 109 109 _________PP___ -1 16.3150 93.1000 TC 64 16.0831 93.3284 4 7 307
1909297N16094 1909 61 NI BB NOT_NAMED 1909-10-24 12:00:00 TS 16.4019 92.9280 main 145 145 _________OP___ -1 16.5000 92.8000 TC 64 16.3039 93.0559 4 6 306
1909297N16094 1909 61 NI BB NOT_NAMED 1909-10-24 15:00:00 TS 16.5787 92.6750 main 170 170 _________PO___ -1 16.6574 92.5499 TC 64 16.5000 92.8000 4 6 305
1909297N16094 1909 61 NI BB NOT_NAMED 1909-10-24 18:00:00 TS 16.7335 92.4305 main 203 203 _________OP___ -1 16.8000 92.3000 TC 64 16.6670 92.5610 4 6 302
1909297N16094 1909 61 NI BB NOT_NAMED 1909-10-24 21:00:00 TS 16.8782 92.1770 main 228 228 _________PP___ -1 16.9423 92.0373 TC 64 16.8142 92.3167 4 6 299
1909297N16094 1909 61 NI BB NOT_NAMED 1909-10-25 00:00:00 TS 17.0272 91.8695 main 261 261 _________OP___ -1 17.1000 91.7000 TC 64 16.9543 92.0391 4 8 295
1909297N16094 1909 61 NI BB NOT_NAMED 1909-10-25 03:00:00 TS 17.2000 91.4650 main 307 307 _________PO___ -1 17.3001 91.2301 TC 64 17.1000 91.7000 4 9 293
1909297N16094 1909 61 NI BB NOT_NAMED 1909-10-25 06:00:00 TS 17.3862 90.9764 main 336 336 _________OP___ -1 17.5000 90.7000 TC 64 17.2724 91.2527 4 10 290
1909297N16094 1909 61 NI BB NOT_NAMED 1909-10-25 09:00:00 TS 17.5541 90.4651 main 372 372 _________PP___ -1 17.6575 90.1849 TC 64 17.4507 90.7453 4 10 289
1909297N16094 1909 61 NI BB NOT_NAMED 1909-10-25 12:00:00 TS 17.7143 89.9576 main 406 398 _________OP___ -1 17.8000 89.7000 TC 64 17.6286 90.2152 4 10 289
1909297N16094 1909 61 NI BB NOT_NAMED 1909-10-25 15:00:00 TS 17.8749 89.4962 main 398 360 _________PO___ -1 17.9498 89.2924 TC 64 17.8000 89.7000 4 9 291
1909297N16094 1909 61 NI BB NOT_NAMED 1909-10-25 18:00:00 TS 18.0304 89.0766 main 360 314 _________OP___ -1 18.1000 88.9000 TC 64 17.9607 89.2531 4 9 291
1909297N16094 1909 61 NI BB NOT_NAMED 1909-10-25 21:00:00 TS 18.1822 88.6385 main 306 268 _________PP___ -1 18.2500 88.4500 TC 64 18.1143 88.8271 4 9 290
1909297N16094 1909 61 NI BB NOT_NAMED 1909-10-26 00:00:00 TS 18.3304 88.2063 main 268 223 _________OP___ -1 18.4000 88.0000 TC 64 18.2608 88.4126 4 9 290
1909297N16094 1909 61 NI BB NOT_NAMED 1909-10-26 03:00:00 TS 18.4787 87.8000 main 223 188 _________PO___ -1 18.5573 87.5999 TC 64 18.4000 88.0000 4 8 290
1909297N16094 1909 61 NI BB NOT_NAMED 1909-10-26 06:00:00 TS 18.6140 87.3853 main 188 158 _________OP___ -1 18.7000 87.2000 TC 64 18.5279 87.5706 4 8 287
1909297N16094 1909 61 NI BB NOT_NAMED 1909-10-26 09:00:00 TS 18.7249 86.9460 main 154 130 _________PP___ -1 18.8000 86.7499 TC 64 18.6497 87.1421 4 9 285
1909297N16094 1909 61 NI BB NOT_NAMED 1909-10-26 12:00:00 TS 18.8358 86.5088 main 130 94 _________OP___ -1 18.9000 86.3000 TC 64 18.7717 86.7175 4 8 287
1909297N16094 1909 61 NI BB NOT_NAMED 1909-10-26 15:00:00 TS 18.9712 86.0962 main 94 64 _________PO___ -1 19.0424 85.8925 TC 55 18.9000 86.3000 4 8 290
1909297N16094 1909 61 NI BB NOT_NAMED 1909-10-26 18:00:00 TS 19.1082 85.7238 main 64 39 _________OP___ -1 19.2000 85.5000 TC 47 19.0394 85.8917 4 8 291
1909297N16094 1909 61 NI BB NOT_NAMED 1909-10-26 21:00:00 TS 19.2539 85.3355 main 24 0 _________PP___ -1 19.3527 85.1026 TC 38 19.1881 85.4907 4 8 292
1909297N16094 1909 61 NI BB NOT_NAMED 1909-10-27 00:00:00 TS 19.3952 84.9629 main 0 0 _________OP___ -1 19.5000 84.7000 TC 30 19.3428 85.0944 4 6 292
1909297N16094 1909 61 NI BB NOT_NAMED 1909-10-27 03:00:00 NR 19.5000 84.7000 main 0 __________O___ -1 TC 19.5000 84.7000 1 5 293

About IBTrACS Database

This database is a web-friendly format of International Best Track Archive for Climate Stewardship (IBTrACS), a global best track data archive curated by NOAA dating back to 1842.

Updated: 2021-12-06